Time;durP1;ratioP1;P1;durP2;ratioP2;P2;SDS_P1;SDS_P2;PMS_P1;PMS_P2;Temp;Humidity;BMP_temperature;BMP_pressure;BME280_temperature;BME280_humidity;BME280_pressure;Samples;Min_cycle;Max_cycle;Signal;HPM_P1;HPM_P2
2022/11/17 00:00:00;;;;;;;37.37;34.90;;;6.70;99.90;;;;;;5076709;28;20742;-74
2022/11/17 00:02:26;;;;;;;42.67;40.07;;;6.70;99.90;;;;;;5088030;28;20184;-73
2022/11/17 00:04:52;;;;;;;30.50;28.43;;;6.70;99.90;;;;;;5081771;28;20555;-73
2022/11/17 00:07:18;;;;;;;12.40;11.33;;;6.70;99.90;;;;;;5017574;28;20224;-73
2022/11/17 00:09:43;;;;;;;26.17;24.47;;;6.70;99.90;;;;;;4993282;28;20181;-73
2022/11/17 00:14:53;;;;;;;43.77;41.27;;;6.70;99.90;;;;;;4993026;28;20264;-74
2022/11/17 00:17:19;;;;;;;51.30;48.30;;;6.80;99.90;;;;;;4991914;28;20287;-74
2022/11/17 00:22:33;;;;;;;46.93;43.87;;;6.80;99.90;;;;;;4973450;28;20189;-73
2022/11/17 00:24:59;;;;;;;40.33;37.67;;;6.80;99.90;;;;;;4973560;28;20268;-74
2022/11/17 00:27:25;;;;;;;32.80;30.83;;;6.80;99.90;;;;;;4971899;28;20201;-74
2022/11/17 00:29:50;;;;;;;23.87;22.23;;;6.80;99.90;;;;;;4973406;28;20189;-73
2022/11/17 00:35:03;;;;;;;45.50;42.97;;;6.80;99.90;;;;;;4983829;28;20281;-74
2022/11/17 00:37:33;;;;;;;27.53;25.67;;;6.90;99.90;;;;;;4991884;28;20204;-74
2022/11/17 00:39:59;;;;;;;23.00;21.30;;;6.90;99.90;;;;;;4990995;28;20314;-73
2022/11/17 00:42:25;;;;;;;22.10;20.57;;;6.90;99.90;;;;;;4992388;28;20656;-73
2022/11/17 00:44:50;;;;;;;13.50;12.50;;;6.90;99.90;;;;;;4991278;28;20223;-74
2022/11/17 00:47:16;;;;;;;21.50;19.57;;;6.90;99.90;;;;;;4991953;28;20566;-74
2022/11/17 00:49:42;;;;;;;28.17;25.87;;;7.00;99.90;;;;;;4991021;28;20566;-74
2022/11/17 00:52:08;;;;;;;22.17;20.40;;;7.00;99.90;;;;;;4992288;28;20286;-74
2022/11/17 00:54:34;;;;;;;17.50;16.10;;;7.00;99.90;;;;;;4992716;28;20198;-73
2022/11/17 00:57:00;;;;;;;15.10;13.97;;;7.00;99.90;;;;;;4990821;28;20204;-74
2022/11/17 00:59:26;;;;;;;13.70;12.60;;;7.00;99.90;;;;;;4990871;28;20620;-74
2022/11/17 01:01:51;;;;;;;16.20;14.93;;;7.00;99.90;;;;;;4990427;28;20177;-74
2022/11/17 01:04:17;;;;;;;16.40;15.10;;;7.00;99.90;;;;;;4992307;28;20649;-75
2022/11/17 01:06:46;;;;;;;19.80;18.47;;;7.00;99.90;;;;;;4991331;28;20205;-74
2022/11/17 01:09:15;;;;;;;24.67;23.17;;;7.00;99.90;;;;;;4986945;28;20193;-74
2022/11/17 01:11:41;;;;;;;20.07;18.67;;;7.10;99.90;;;;;;4987301;28;20216;-74
2022/11/17 01:14:13;;;;;;;43.50;40.87;;;7.10;99.90;;;;;;4971177;28;20197;-74
2022/11/17 01:16:39;;;;;;;42.40;39.87;;;7.10;99.90;;;;;;4986541;28;20239;-74
2022/11/17 01:19:05;;;;;;;20.63;19.03;;;7.10;99.90;;;;;;4990693;28;20181;-74
2022/11/17 01:21:31;;;;;;;21.97;20.43;;;7.10;99.90;;;;;;4991324;28;20276;-74
2022/11/17 01:23:59;;;;;;;15.23;14.13;;;7.10;99.90;;;;;;4992480;28;20271;-74
2022/11/17 01:26:28;;;;;;;13.27;12.40;;;7.10;99.90;;;;;;4992023;28;20267;-74
2022/11/17 01:28:54;;;;;;;10.53;9.50;;;7.10;99.90;;;;;;4991552;28;20207;-75
2022/11/17 01:31:23;;;;;;;12.93;11.97;;;7.10;99.90;;;;;;4991514;28;20212;-73
2022/11/17 01:33:50;;;;;;;13.43;12.23;;;7.10;99.90;;;;;;4992054;28;20209;-74
2022/11/17 01:36:24;;;;;;;12.00;10.97;;;7.20;99.90;;;;;;4991196;28;20191;-75
2022/11/17 01:38:50;;;;;;;13.07;11.97;;;7.20;99.90;;;;;;4990662;28;20207;-74
2022/11/17 01:41:22;;;;;;;31.47;29.60;;;7.20;99.90;;;;;;4991029;28;20187;-75
2022/11/17 01:43:50;;;;;;;34.53;32.37;;;7.30;99.90;;;;;;4991878;28;20180;-74
2022/11/17 01:46:30;;;;;;;12.00;10.83;;;7.20;99.90;;;;;;5005528;28;20275;-74
2022/11/17 01:49:25;;;;;;;17.70;16.50;;;7.20;99.90;;;;;;4993377;28;20256;-74
2022/11/17 01:51:58;;;;;;;13.30;12.20;;;7.30;99.90;;;;;;4990117;28;20606;-74
2022/11/17 01:54:28;;;;;;;11.47;10.37;;;7.30;99.90;;;;;;4991370;28;20216;-74
2022/11/17 01:56:58;;;;;;;11.97;11.10;;;7.40;99.90;;;;;;4990875;28;20317;-73
2022/11/17 01:59:28;;;;;;;9.23;8.60;;;7.40;99.90;;;;;;4990663;28;20192;-73
2022/11/17 02:01:54;;;;;;;9.67;8.53;;;7.40;99.90;;;;;;4990920;28;20198;-73
2022/11/17 02:04:29;;;;;;;8.87;7.97;;;7.50;99.90;;;;;;4991633;28;20726;-73
2022/11/17 02:07:13;;;;;;;8.50;7.70;;;7.50;99.90;;;;;;4989650;28;20676;-72
2022/11/17 02:09:39;;;;;;;8.10;7.50;;;7.50;99.90;;;;;;4991255;28;20258;-74
2022/11/17 02:12:08;;;;;;;9.70;7.97;;;7.60;99.90;;;;;;4990948;28;20212;-73
2022/11/17 02:14:35;;;;;;;8.03;7.33;;;7.70;99.90;;;;;;4991157;28;20280;-73
2022/11/17 02:17:06;;;;;;;9.07;8.27;;;7.70;99.90;;;;;;4990814;28;20317;-74
2022/11/17 02:19:37;;;;;;;9.13;8.27;;;7.70;99.90;;;;;;4989801;28;20184;-74
2022/11/17 02:22:27;;;;;;;8.30;7.50;;;7.80;99.90;;;;;;4990428;28;20549;-74
2022/11/17 02:25:03;;;;;;;9.37;8.43;;;7.80;99.90;;;;;;4989367;28;20612;-73
2022/11/17 02:28:05;;;;;;;8.00;7.37;;;8.00;99.90;;;;;;4991039;28;20287;-73
2022/11/17 02:30:44;;;;;;;8.63;8.03;;;8.10;99.90;;;;;;4989646;28;20208;-73
2022/11/17 02:33:28;;;;;;;9.77;8.93;;;8.20;99.90;;;;;;4991421;28;20211;-73
2022/11/17 02:36:00;;;;;;;9.77;8.93;;;8.20;99.90;;;;;;4990576;28;20185;-73
2022/11/17 02:38:28;;;;;;;13.70;12.70;;;8.20;99.90;;;;;;4989583;28;20278;-74
2022/11/17 02:41:25;;;;;;;10.57;9.57;;;8.10;99.90;;;;;;4989737;28;20189;-73
2022/11/17 02:44:03;;;;;;;8.97;8.27;;;8.20;99.90;;;;;;4988951;28;20196;-73
2022/11/17 02:46:49;;;;;;;9.73;8.83;;;8.20;99.90;;;;;;4990069;28;20215;-73
2022/11/17 02:49:25;;;;;;;9.03;8.27;;;8.20;99.90;;;;;;4990033;28;20249;-73
2022/11/17 02:51:54;;;;;;;8.37;7.73;;;8.20;99.90;;;;;;4990352;28;20214;-73
2022/11/17 02:54:22;;;;;;;8.87;7.90;;;8.20;99.90;;;;;;4990707;28;20186;-73
2022/11/17 02:56:48;;;;;;;18.53;17.17;;;8.20;99.90;;;;;;4989304;28;20258;-73
2022/11/17 02:59:17;;;;;;;29.70;27.93;;;8.20;99.90;;;;;;4990588;28;20806;-73
2022/11/17 03:02:01;;;;;;;23.90;22.50;;;8.30;99.90;;;;;;4991119;28;20188;-72
2022/11/17 03:04:38;;;;;;;13.43;12.63;;;8.30;99.90;;;;;;4989363;28;20188;-72
2022/11/17 03:07:21;;;;;;;14.93;13.93;;;8.30;99.90;;;;;;4990291;28;20296;-72
2022/11/17 03:09:55;;;;;;;13.93;12.87;;;8.30;99.90;;;;;;4990496;28;20200;-73
2022/11/17 03:12:23;;;;;;;22.70;21.23;;;8.30;99.90;;;;;;4990751;28;20625;-72
2022/11/17 03:15:06;;;;;;;32.17;30.30;;;8.40;99.90;;;;;;4990643;28;20196;-72
2022/11/17 03:17:45;;;;;;;29.20;27.53;;;8.50;99.90;;;;;;4988859;28;20728;-73
2022/11/17 03:20:26;;;;;;;8.30;7.60;;;8.50;99.90;;;;;;4990310;28;20659;-73
2022/11/17 03:23:11;;;;;;;15.07;13.70;;;8.60;99.90;;;;;;4990113;28;20188;-73
2022/11/17 03:25:41;;;;;;;9.27;8.43;;;8.60;99.90;;;;;;4989406;28;20187;-73
2022/11/17 03:28:09;;;;;;;13.50;12.40;;;8.60;99.90;;;;;;4988829;28;20218;-73
2022/11/17 03:30:39;;;;;;;8.70;8.00;;;8.60;99.90;;;;;;5006349;28;20208;-72
2022/11/17 03:33:14;;;;;;;7.53;6.93;;;8.60;99.90;;;;;;4974471;28;20586;-72
2022/11/17 03:35:44;;;;;;;9.80;9.20;;;8.60;99.90;;;;;;4972685;28;20181;-72
2022/11/17 03:38:13;;;;;;;14.63;13.73;;;8.70;99.90;;;;;;4972912;28;20209;-73
2022/11/17 03:40:42;;;;;;;12.97;12.07;;;8.90;99.90;;;;;;4971983;28;20594;-71
2022/11/17 03:43:10;;;;;;;14.90;13.90;;;8.90;99.90;;;;;;4988796;28;20189;-72
2022/11/17 03:46:01;;;;;;;16.30;15.30;;;8.90;99.90;;;;;;4989746;28;20184;-73
2022/11/17 03:48:42;;;;;;;20.00;18.43;;;8.90;99.90;;;;;;4989898;28;20221;-73
2022/11/17 03:51:33;;;;;;;8.20;7.60;;;8.90;99.90;;;;;;4988912;28;20215;-73
2022/11/17 03:53:59;;;;;;;7.73;7.00;;;9.00;99.90;;;;;;4993132;28;20658;-73
2022/11/17 03:56:56;;;;;;;14.33;13.33;;;9.00;99.90;;;;;;4993827;28;20177;-73
2022/11/17 04:00:14;;;;;;;16.53;15.43;;;9.00;99.90;;;;;;4992687;28;20202;-73
2022/11/17 04:02:45;;;;;;;12.50;11.47;;;9.00;99.90;;;;;;5001975;28;20196;-73
2022/11/17 04:05:13;;;;;;;15.00;14.10;;;9.00;99.90;;;;;;4991680;28;20173;-73
2022/11/17 04:07:44;;;;;;;13.17;12.30;;;9.10;99.90;;;;;;5012463;28;20214;-73
2022/11/17 04:10:12;;;;;;;12.63;11.60;;;9.00;99.90;;;;;;5022408;28;20173;-73
2022/11/17 04:18:07;;;;;;;20.50;19.13;;;9.00;99.90;;;;;;4997366;28;20202;-73
2022/11/17 04:20:35;;;;;;;30.40;28.40;;;8.80;99.90;;;;;;4994658;28;20184;-74
2022/11/17 04:23:06;;;;;;;25.73;24.13;;;8.80;99.90;;;;;;4992248;28;20215;-74
2022/11/17 04:28:36;;;;;;;7.60;7.00;;;8.70;99.90;;;;;;4993547;28;20201;-74
2022/11/17 04:31:29;;;;;;;10.30;9.60;;;8.70;99.90;;;;;;4985218;28;20211;-74
2022/11/17 04:33:57;;;;;;;8.90;8.30;;;8.70;99.90;;;;;;4994461;28;20675;-75
2022/11/17 04:36:29;;;;;;;8.33;7.70;;;8.70;99.90;;;;;;4992488;28;20656;-74
2022/11/17 04:38:57;;;;;;;8.30;7.60;;;8.70;99.90;;;;;;4992100;28;20206;-75
2022/11/17 04:44:12;;;;;;;8.93;7.10;;;8.70;99.90;;;;;;4995374;28;20589;-74
2022/11/17 04:46:39;;;;;;;9.13;8.20;;;8.70;99.90;;;;;;4992498;28;20216;-74
2022/11/17 04:49:06;;;;;;;8.30;7.60;;;8.70;99.90;;;;;;4988621;28;20645;-73
2022/11/17 04:51:33;;;;;;;10.27;7.53;;;8.70;99.90;;;;;;4982057;28;20239;-73
2022/11/17 04:53:59;;;;;;;6.90;6.37;;;8.60;99.90;;;;;;4989689;28;20564;-75
2022/11/17 04:56:25;;;;;;;11.10;10.30;;;8.60;99.90;;;;;;4992624;28;20173;-75
2022/11/17 04:58:51;;;;;;;13.07;11.77;;;8.60;99.90;;;;;;4993599;28;20191;-75
2022/11/17 05:01:18;;;;;;;17.20;15.83;;;8.60;99.90;;;;;;4993045;28;20177;-75
2022/11/17 05:03:51;;;;;;;21.13;19.47;;;8.60;99.90;;;;;;4993051;28;20181;-75
2022/11/17 05:06:19;;;;;;;23.20;21.77;;;8.50;99.90;;;;;;4991751;28;20666;-75
2022/11/17 05:08:45;;;;;;;26.10;24.50;;;8.50;99.90;;;;;;4991817;28;20183;-75
2022/11/17 05:13:57;;;;;;;35.33;33.23;;;8.50;99.90;;;;;;5011076;28;20177;-73
2022/11/17 05:19:11;;;;;;;25.37;23.83;;;8.50;99.90;;;;;;4995351;28;20237;-75
2022/11/17 05:21:37;;;;;;;28.97;27.37;;;8.50;99.90;;;;;;4995046;28;20202;-74
2022/11/17 05:24:03;;;;;;;26.13;24.63;;;8.50;99.90;;;;;;4993842;28;20176;-75
2022/11/17 05:26:31;;;;;;;17.87;16.47;;;8.40;99.90;;;;;;4994758;28;20282;-76
2022/11/17 05:28:59;;;;;;;22.57;20.90;;;8.50;99.90;;;;;;4994601;28;20645;-75
2022/11/17 05:31:27;;;;;;;16.80;15.70;;;8.40;99.90;;;;;;4994553;28;20676;-75
2022/11/17 05:33:53;;;;;;;16.23;15.13;;;8.50;99.90;;;;;;4993605;28;20185;-74
2022/11/17 05:36:20;;;;;;;17.83;16.63;;;8.50;99.90;;;;;;4990882;28;20220;-71
2022/11/17 05:38:47;;;;;;;18.53;17.13;;;8.50;99.90;;;;;;4989812;28;20212;-71
2022/11/17 05:41:13;;;;;;;16.27;15.10;;;8.40;99.90;;;;;;4989815;28;20197;-70
2022/11/17 05:43:39;;;;;;;12.57;11.60;;;8.50;99.90;;;;;;4989014;28;20350;-70
2022/11/17 05:46:05;;;;;;;9.27;8.40;;;8.50;99.90;;;;;;4989786;28;20292;-70
2022/11/17 05:48:32;;;;;;;11.70;10.70;;;8.40;99.90;;;;;;4986767;22;20722;-77
2022/11/17 05:50:58;;;;;;;11.47;9.97;;;8.40;99.90;;;;;;4969092;28;20213;-77
2022/11/17 05:53:24;;;;;;;10.63;9.63;;;8.40;99.90;;;;;;4970693;28;20549;-77
2022/11/17 05:55:50;;;;;;;26.67;25.10;;;8.40;99.90;;;;;;4968929;28;20179;-73
2022/11/17 05:58:29;;;;;;;41.33;38.80;;;8.50;99.90;;;;;;4968702;28;20205;-73
2022/11/17 06:00:56;;;;;;;22.17;20.83;;;8.60;99.90;;;;;;4970141;28;20216;-73
2022/11/17 06:03:34;;;;;;;16.37;15.40;;;8.60;99.90;;;;;;4969987;28;20608;-73
2022/11/17 06:05:59;;;;;;;14.30;13.20;;;8.50;99.90;;;;;;4970187;28;20195;-73
2022/11/17 06:08:27;;;;;;;10.00;9.10;;;8.50;99.90;;;;;;4969839;28;20197;-73
2022/11/17 06:10:54;;;;;;;16.63;15.33;;;8.50;99.90;;;;;;4968559;28;20697;-73
2022/11/17 06:13:24;;;;;;;15.13;14.17;;;8.50;99.90;;;;;;4969239;28;20602;-74
2022/11/17 06:15:52;;;;;;;14.93;13.70;;;8.50;99.90;;;;;;4969027;28;20613;-73
2022/11/17 06:18:22;;;;;;;13.43;12.57;;;8.50;99.90;;;;;;4969282;28;20334;-73
2022/11/17 06:20:49;;;;;;;10.30;9.50;;;8.60;99.90;;;;;;4968705;28;20593;-73
2022/11/17 06:23:17;;;;;;;7.77;7.27;;;8.50;99.90;;;;;;4968746;28;20685;-73
2022/11/17 06:25:44;;;;;;;7.00;6.50;;;8.50;99.90;;;;;;4969447;28;20243;-73
2022/11/17 06:28:14;;;;;;;8.00;7.30;;;8.50;99.90;;;;;;4968318;28;20270;-74
2022/11/17 06:30:41;;;;;;;10.23;7.77;;;8.50;99.90;;;;;;4969871;28;20614;-74
2022/11/17 06:33:12;;;;;;;9.90;9.10;;;8.50;99.90;;;;;;4969464;28;20212;-74
2022/11/17 06:35:40;;;;;;;12.30;11.20;;;8.50;99.90;;;;;;4969777;28;20238;-73
2022/11/17 06:38:06;;;;;;;10.60;9.63;;;8.60;99.90;;;;;;4969162;28;20201;-74
2022/11/17 06:40:31;;;;;;;15.67;11.47;;;8.60;99.90;;;;;;4969297;28;20607;-73
2022/11/17 06:43:07;;;;;;;13.77;12.47;;;8.60;99.90;;;;;;4969425;28;20688;-73
2022/11/17 06:45:41;;;;;;;14.63;13.20;;;8.60;99.90;;;;;;4968424;28;20189;-76
2022/11/17 06:48:08;;;;;;;29.80;27.50;;;8.60;99.90;;;;;;4968737;28;20231;-75
2022/11/17 06:50:34;;;;;;;49.97;46.90;;;8.60;99.90;;;;;;4969347;28;20215;-74
2022/11/17 06:53:02;;;;;;;57.77;54.30;;;8.50;99.90;;;;;;4979193;28;20185;-74
2022/11/17 06:55:28;;;;;;;65.67;62.07;;;8.50;99.90;;;;;;4976080;28;20174;-75
2022/11/17 06:58:02;;;;;;;82.47;77.83;;;8.40;99.90;;;;;;4980598;28;20865;-75
2022/11/17 07:00:29;;;;;;;37.73;35.70;;;8.40;99.90;;;;;;4990495;28;20199;-75
2022/11/17 07:03:03;;;;;;;13.20;10.17;;;8.40;99.90;;;;;;4988639;28;20185;-75
2022/11/17 07:05:33;;;;;;;7.53;6.83;;;8.40;99.90;;;;;;4988974;28;20196;-75
2022/11/17 07:08:01;;;;;;;8.13;7.33;;;8.40;99.90;;;;;;4988168;28;20232;-75
2022/11/17 07:10:28;;;;;;;7.40;6.77;;;8.40;99.90;;;;;;4988543;28;20247;-76
2022/11/17 07:12:54;;;;;;;7.80;7.10;;;8.40;99.90;;;;;;4987588;28;20280;-76
2022/11/17 07:15:21;;;;;;;8.00;7.17;;;8.40;99.90;;;;;;4988838;28;20664;-75
2022/11/17 07:17:47;;;;;;;8.87;6.40;;;8.50;99.90;;;;;;4986774;28;20284;-76
2022/11/17 07:20:13;;;;;;;7.30;6.60;;;8.60;99.90;;;;;;4988710;28;20382;-76
2022/11/17 07:22:40;;;;;;;7.40;6.90;;;8.70;99.90;;;;;;4987344;28;20219;-76
2022/11/17 07:25:06;;;;;;;14.80;13.87;;;8.80;99.90;;;;;;4988404;28;20243;-75
2022/11/17 07:27:32;;;;;;;23.93;22.27;;;9.00;99.90;;;;;;4990349;28;20237;-75
2022/11/17 07:29:58;;;;;;;26.77;25.17;;;9.10;99.90;;;;;;4992020;28;20172;-75
2022/11/17 07:32:24;;;;;;;31.43;29.80;;;9.30;99.90;;;;;;4990583;28;20212;-75
2022/11/17 07:34:50;;;;;;;37.97;35.90;;;9.40;99.90;;;;;;4990729;28;20742;-76
2022/11/17 07:37:16;;;;;;;23.97;22.57;;;9.50;99.90;;;;;;4991617;28;20210;-76
2022/11/17 07:39:42;;;;;;;55.40;52.00;;;9.80;99.90;;;;;;4990502;28;20276;-76
2022/11/17 07:42:07;;;;;;;6.30;5.83;;;10.30;99.90;;;;;;4991280;28;20185;-75
2022/11/17 07:44:33;;;;;;;16.13;15.27;;;10.40;99.90;;;;;;4991997;28;20657;-76
2022/11/17 07:47:00;;;;;;;10.50;9.87;;;10.30;99.90;;;;;;4990959;28;20264;-75
2022/11/17 07:49:26;;;;;;;27.43;25.70;;;10.30;99.90;;;;;;4991752;28;20527;-77
2022/11/17 07:51:52;;;;;;;69.80;66.03;;;10.20;99.90;;;;;;4987275;28;20216;-75
2022/11/17 07:54:17;;;;;;;55.63;52.60;;;10.20;99.90;;;;;;4990428;28;20640;-77
2022/11/17 07:56:43;;;;;;;57.23;53.97;;;10.20;99.90;;;;;;4990560;28;20181;-76
2022/11/17 07:59:09;;;;;;;56.60;53.67;;;10.10;99.90;;;;;;4991456;28;20180;-77
2022/11/17 08:01:35;;;;;;;59.90;56.67;;;10.00;99.90;;;;;;4989507;28;20188;-76
2022/11/17 08:04:01;;;;;;;38.97;36.73;;;10.00;99.90;;;;;;4990624;28;20184;-75
2022/11/17 08:06:27;;;;;;;36.23;34.23;;;10.00;99.90;;;;;;4981653;28;20189;-75
2022/11/17 08:08:53;;;;;;;36.00;34.10;;;10.00;99.90;;;;;;4970917;28;20181;-77
2022/11/17 08:11:19;;;;;;;40.17;37.83;;;10.00;99.90;;;;;;4972314;28;20303;-76
2022/11/17 08:13:45;;;;;;;45.07;42.57;;;9.90;99.90;;;;;;4972193;28;20269;-76
2022/11/17 08:16:12;;;;;;;49.93;47.27;;;9.90;99.90;;;;;;4970918;28;20242;-76
2022/11/17 08:18:38;;;;;;;37.90;35.77;;;10.00;99.90;;;;;;4970430;28;20209;-76
2022/11/17 08:21:07;;;;;;;62.43;58.97;;;9.90;99.90;;;;;;4972016;28;20221;-76
2022/11/17 08:23:33;;;;;;;79.53;75.47;;;9.80;99.90;;;;;;4972513;28;20200;-76
2022/11/17 08:26:00;;;;;;;55.37;52.43;;;9.80;99.90;;;;;;4970886;28;20193;-77
2022/11/17 08:28:25;;;;;;;32.63;30.87;;;9.80;99.90;;;;;;4971420;28;20205;-76
2022/11/17 08:30:52;;;;;;;21.97;20.73;;;9.90;99.90;;;;;;4971847;28;20209;-77
2022/11/17 08:33:17;;;;;;;15.20;14.20;;;9.90;99.90;;;;;;4970758;28;20189;-76
2022/11/17 08:35:43;;;;;;;14.13;13.43;;;10.00;99.90;;;;;;4973170;28;20178;-77
2022/11/17 08:38:14;;;;;;;15.63;14.67;;;10.10;99.90;;;;;;4985361;28;20228;-76
2022/11/17 08:40:41;;;;;;;18.90;17.87;;;10.10;99.90;;;;;;4991397;28;20286;-76
2022/11/17 08:43:07;;;;;;;19.63;18.57;;;10.20;99.90;;;;;;4992342;28;20197;-76
2022/11/17 08:45:33;;;;;;;17.90;16.90;;;10.20;99.90;;;;;;4990245;28;20184;-76
2022/11/17 08:47:59;;;;;;;18.30;17.03;;;10.30;99.90;;;;;;4989253;28;20210;-76
2022/11/17 08:50:25;;;;;;;31.50;29.90;;;10.30;99.90;;;;;;4979715;28;20659;-76
2022/11/17 08:52:51;;;;;;;91.57;87.07;;;10.30;99.90;;;;;;4955965;28;20185;-75
2022/11/17 08:55:17;;;;;;;99.27;94.27;;;10.40;99.90;;;;;;4967778;28;20190;-77
2022/11/17 08:57:43;;;;;;;113.23;107.43;;;10.40;99.90;;;;;;4972952;28;20204;-76
2022/11/17 09:00:10;;;;;;;99.33;94.43;;;10.40;99.90;;;;;;4970589;28;20177;-75
2022/11/17 09:02:38;;;;;;;106.43;101.23;;;10.50;99.90;;;;;;4971444;28;20235;-75
2022/11/17 09:05:05;;;;;;;76.43;72.50;;;10.60;99.90;;;;;;4970703;28;20226;-75
2022/11/17 09:07:34;;;;;;;38.30;36.27;;;10.80;99.90;;;;;;4970639;28;20757;-75
2022/11/17 09:10:00;;;;;;;6.87;6.47;;;11.00;99.90;;;;;;4971011;28;20197;-75
2022/11/17 09:12:26;;;;;;;12.97;12.27;;;11.20;99.90;;;;;;4970819;28;20693;-75
2022/11/17 09:14:52;;;;;;;10.80;9.97;;;11.40;99.90;;;;;;4969732;28;20217;-74
2022/11/17 09:17:18;;;;;;;38.83;36.83;;;11.50;99.90;;;;;;4969419;28;20698;-75
2022/11/17 09:19:43;;;;;;;31.70;30.20;;;11.70;99.90;;;;;;5062952;28;20552;-75
2022/11/17 09:22:09;;;;;;;11.30;10.80;;;11.70;99.90;;;;;;5071917;28;20216;-75
2022/11/17 09:24:35;;;;;;;10.00;9.40;;;11.90;99.90;;;;;;5071514;28;20181;-75
2022/11/17 09:27:04;;;;;;;7.63;7.07;;;12.00;99.90;;;;;;5071058;28;20198;-74
2022/11/17 09:29:30;;;;;;;36.57;34.73;;;12.10;99.90;;;;;;5073708;28;20665;-77
2022/11/17 09:31:56;;;;;;;53.67;51.17;;;12.30;99.90;;;;;;5073740;28;20212;-76
2022/11/17 09:34:22;;;;;;;26.80;25.47;;;12.40;99.90;;;;;;5071211;28;20180;-76
2022/11/17 09:36:48;;;;;;;12.60;11.97;;;12.50;99.90;;;;;;5071720;28;20226;-76
2022/11/17 09:39:17;;;;;;;9.60;9.20;;;12.50;99.90;;;;;;5071065;28;20189;-76
2022/11/17 09:41:45;;;;;;;12.27;11.60;;;12.60;99.90;;;;;;5071456;28;20177;-76
2022/11/17 09:44:13;;;;;;;14.47;13.87;;;12.50;99.90;;;;;;5095603;28;20189;-76
2022/11/17 09:46:53;;;;;;;14.37;13.50;;;12.60;99.90;;;;;;5082446;28;20269;-76
2022/11/17 09:49:53;;;;;;;10.57;10.10;;;12.50;99.90;;;;;;5070418;28;20181;-76
2022/11/17 09:52:35;;;;;;;10.40;9.70;;;12.60;99.90;;;;;;5070729;28;20216;-76
2022/11/17 09:55:25;;;;;;;15.97;15.13;;;12.70;99.90;;;;;;5071984;28;20649;-77
2022/11/17 09:58:10;;;;;;;15.60;14.90;;;12.80;99.90;;;;;;5070250;28;20193;-76
2022/11/17 10:00:40;;;;;;;19.03;18.03;;;13.00;99.90;;;;;;5070816;28;20188;-77
2022/11/17 10:03:25;;;;;;;15.93;15.27;;;13.40;99.90;;;;;;5072401;28;20599;-77
2022/11/17 10:05:52;;;;;;;9.70;8.93;;;13.40;99.90;;;;;;5072313;28;20227;-77
2022/11/17 10:08:46;;;;;;;6.13;5.67;;;13.10;99.90;;;;;;5071892;28;20202;-77
2022/11/17 10:11:32;;;;;;;5.60;5.27;;;13.00;99.90;;;;;;5032764;28;20256;-77
2022/11/17 10:14:07;;;;;;;4.87;4.67;;;12.90;99.90;;;;;;5070904;28;20181;-77
2022/11/17 10:16:35;;;;;;;4.50;4.10;;;12.80;99.90;;;;;;5072096;28;20696;-77
2022/11/17 10:19:22;;;;;;;3.90;3.60;;;12.90;99.90;;;;;;5070783;28;20181;-77
2022/11/17 10:22:00;;;;;;;3.63;3.53;;;12.90;99.90;;;;;;5070635;28;20569;-77
2022/11/17 10:24:37;;;;;;;4.53;4.13;;;13.00;99.90;;;;;;5071892;28;20209;-76
2022/11/17 10:27:05;;;;;;;5.97;5.17;;;13.10;99.90;;;;;;5071080;28;20214;-76
2022/11/17 10:29:33;;;;;;;5.57;5.03;;;13.10;99.90;;;;;;5070824;28;20178;-77
2022/11/17 10:32:00;;;;;;;4.43;4.20;;;13.20;99.90;;;;;;5071278;28;20308;-76
2022/11/17 10:34:36;;;;;;;3.70;3.50;;;13.20;99.90;;;;;;5069913;28;20177;-76
2022/11/17 10:37:10;;;;;;;7.60;7.27;;;13.20;99.90;;;;;;5071411;28;20207;-77
2022/11/17 10:39:40;;;;;;;6.77;6.37;;;13.10;99.90;;;;;;5072170;28;20626;-77
2022/11/17 10:42:27;;;;;;;7.07;6.70;;;13.10;99.90;;;;;;5071067;28;20182;-77
2022/11/17 10:44:58;;;;;;;8.20;7.90;;;13.70;99.90;;;;;;5071095;28;20254;-77
2022/11/17 10:47:26;;;;;;;8.40;7.80;;;14.30;99.90;;;;;;5070884;28;20244;-77
2022/11/17 10:50:26;;;;;;;10.83;10.13;;;14.90;99.90;;;;;;5073816;28;20188;-78
2022/11/17 10:52:54;;;;;;;3.70;3.50;;;15.10;99.90;;;;;;5038984;28;20551;-77
2022/11/17 10:55:32;;;;;;;4.10;3.80;;;14.90;99.90;;;;;;5079850;28;20178;-77
2022/11/17 10:58:20;;;;;;;6.07;5.77;;;14.80;99.90;;;;;;5072148;28;20304;-77
2022/11/17 11:00:55;;;;;;;7.03;6.53;;;14.90;99.90;;;;;;5071185;28;20181;-77
2022/11/17 11:03:30;;;;;;;7.70;7.20;;;15.50;99.90;;;;;;5071682;28;20181;-77
2022/11/17 11:06:30;;;;;;;6.27;5.93;;;15.40;99.90;;;;;;5073254;28;20184;-77
2022/11/17 11:09:14;;;;;;;6.73;6.37;;;15.30;99.90;;;;;;5066840;28;20786;-77
2022/11/17 11:11:47;;;;;;;13.23;12.43;;;14.80;99.90;;;;;;5070878;28;20308;-77
2022/11/17 11:14:24;;;;;;;10.27;9.23;;;14.50;99.90;;;;;;5071809;28;20177;-77
2022/11/17 11:16:50;;;;;;;11.07;10.37;;;14.50;99.90;;;;;;5074607;28;20295;-77
2022/11/17 11:19:19;;;;;;;9.10;8.60;;;14.70;99.90;;;;;;5071840;28;20178;-76
2022/11/17 11:22:05;;;;;;;16.47;15.10;;;16.40;99.90;;;;;;5070808;28;20560;-76
2022/11/17 11:24:56;;;;;;;39.87;37.47;;;18.30;99.90;;;;;;5070772;28;20185;-75
2022/11/17 11:27:33;;;;;;;17.37;16.33;;;19.90;99.90;;;;;;5071353;28;20201;-76
2022/11/17 11:30:05;;;;;;;14.03;13.13;;;20.70;99.90;;;;;;5069455;28;20614;-76
2022/11/17 11:32:52;;;;;;;8.70;8.10;;;20.50;99.90;;;;;;5072000;28;20205;-75
2022/11/17 11:35:56;;;;;;;3.30;3.10;;;21.10;99.90;;;;;;5069744;28;20536;-76
2022/11/17 11:38:50;;;;;;;7.07;4.57;;;20.60;99.90;;;;;;5039730;28;20229;-77
2022/11/17 11:41:57;;;;;;;4.73;4.47;;;20.60;99.90;;;;;;5070498;28;20217;-76
2022/11/17 11:44:31;;;;;;;5.93;4.83;;;18.90;99.90;;;;;;5070445;28;20186;-76
2022/11/17 11:49:47;;;;;;;4.23;3.87;;;17.70;99.90;;;;;;5067489;28;20217;-70
2022/11/17 11:52:27;;;;;;;4.50;3.90;;;17.70;99.90;;;;;;5070562;28;20213;-70
2022/11/17 11:55:00;;;;;;;4.93;4.53;;;17.20;99.90;;;;;;5070519;28;20182;-69
2022/11/17 11:57:39;;;;;;;5.10;4.70;;;16.80;99.90;;;;;;5068698;28;20202;-71
2022/11/17 12:00:16;;;;;;;9.57;8.47;;;17.10;99.90;;;;;;5070438;28;20729;-71
2022/11/17 12:03:22;;;;;;;12.67;11.87;;;16.50;99.90;;;;;;5070423;28;20181;-70
2022/11/17 12:09:13;;;;;;;25.70;24.30;;;15.50;99.90;;;;;;5069934;28;20197;-70
2022/11/17 12:11:59;;;;;;;43.07;40.50;;;14.80;99.90;;;;;;5070311;28;20216;-70
2022/11/17 12:14:27;;;;;;;67.30;63.77;;;14.40;99.90;;;;;;5077788;28;20249;-70
2022/11/17 12:17:12;;;;;;;65.37;61.67;;;14.20;99.90;;;;;;5086473;28;20239;-70
2022/11/17 12:19:49;;;;;;;51.27;48.27;;;14.80;99.90;;;;;;5074495;28;20553;-70
2022/11/17 12:22:34;;;;;;;42.67;39.93;;;17.30;99.90;;;;;;5072913;28;20551;-70
2022/11/17 12:25:18;;;;;;;23.77;21.93;;;19.00;99.90;;;;;;5073653;28;20181;-70
2022/11/17 12:27:51;;;;;;;28.30;26.73;;;19.00;99.90;;;;;;5073206;28;20339;-70
2022/11/17 12:30:32;;;;;;;31.60;29.53;;;18.10;99.90;;;;;;5073682;28;20186;-70
2022/11/17 12:33:00;;;;;;;26.07;24.23;;;18.30;99.90;;;;;;5073639;28;20439;-70
2022/11/17 12:35:31;;;;;;;22.60;21.13;;;17.70;99.90;;;;;;5089167;28;20181;-70
2022/11/17 12:38:15;;;;;;;20.27;18.83;;;17.30;99.90;;;;;;5073316;28;20194;-70
2022/11/17 12:40:52;;;;;;;26.10;24.37;;;16.80;99.90;;;;;;5072262;28;20178;-70
2022/11/17 12:43:20;;;;;;;31.20;29.50;;;17.10;99.90;;;;;;5073514;28;20731;-70
2022/11/17 12:45:54;;;;;;;35.33;33.10;;;17.00;99.90;;;;;;5073301;28;20219;-69
2022/11/17 12:48:23;;;;;;;35.30;33.20;;;16.50;99.90;;;;;;5072759;28;20635;-72
2022/11/17 12:50:54;;;;;;;38.40;36.30;;;16.10;99.90;;;;;;5073250;28;20644;-69
2022/11/17 12:53:30;;;;;;;28.10;26.23;;;15.70;99.90;;;;;;5073229;28;20192;-69
2022/11/17 12:56:34;;;;;;;26.53;24.83;;;15.40;99.90;;;;;;5073215;28;20181;-69
2022/11/17 12:59:07;;;;;;;30.20;28.47;;;15.20;99.90;;;;;;5063620;28;20220;-70
2022/11/17 13:01:38;;;;;;;30.17;28.67;;;15.10;99.90;;;;;;5073027;28;20181;-70
2022/11/17 13:04:15;;;;;;;27.47;25.93;;;15.50;99.90;;;;;;5072000;28;20273;-70
2022/11/17 13:07:04;;;;;;;23.53;22.07;;;16.50;99.90;;;;;;5072832;28;20182;-70
2022/11/17 13:09:35;;;;;;;29.03;27.33;;;18.00;99.90;;;;;;5072860;28;20193;-69
2022/11/17 13:12:06;;;;;;;10.00;9.20;;;20.10;99.90;;;;;;5088428;28;20214;-70
2022/11/17 13:14:34;;;;;;;6.80;6.10;;;20.10;99.90;;;;;;5072785;28;20188;-70
2022/11/17 13:17:00;;;;;;;6.93;5.47;;;19.40;99.90;;;;;;5072344;28;20181;-70
2022/11/17 13:19:32;;;;;;;4.80;4.40;;;20.00;99.90;;;;;;5071572;28;20185;-70
2022/11/17 13:21:59;;;;;;;6.80;5.10;;;19.80;99.90;;;;;;5072767;28;20182;-70
2022/11/17 13:24:30;;;;;;;7.30;5.43;;;19.70;99.90;;;;;;5071272;28;20178;-70
2022/11/17 13:26:58;;;;;;;12.43;5.97;;;19.30;99.90;;;;;;5072357;28;20243;-70
2022/11/17 13:29:24;;;;;;;7.03;5.37;;;18.70;99.90;;;;;;5071275;28;20181;-69
2022/11/17 13:32:03;;;;;;;6.37;4.63;;;18.10;99.90;;;;;;5071331;28;20697;-70